createdAt,value
2024-04-12T00:02:10.181Z,101345.38
2024-04-12T00:04:37.978Z,101350.81
2024-04-12T00:07:16.613Z,101346.16
2024-04-12T00:09:46.900Z,101351.44
2024-04-12T00:12:14.750Z,101346.91
2024-04-12T00:14:45.992Z,101350.38
2024-04-12T00:17:18.327Z,101349.13
2024-04-12T00:19:47.522Z,101356.63
2024-04-12T00:22:16.077Z,101353.75
2024-04-12T00:24:43.660Z,101365.63
2024-04-12T00:27:10.992Z,101367.81
2024-04-12T00:29:38.742Z,101368.00
2024-04-12T00:32:19.788Z,101373.44
2024-04-12T00:34:50.130Z,101361.63
2024-04-12T00:37:18.129Z,101367.25
2024-04-12T00:39:51.453Z,101362.47
2024-04-12T00:42:30.011Z,101366.59
2024-04-12T00:44:59.831Z,101369.00
2024-04-12T00:47:29.638Z,101366.50
2024-04-12T00:49:57.746Z,101364.78
2024-04-12T00:52:28.958Z,101363.19
2024-04-12T00:55:04.895Z,101361.44
2024-04-12T00:57:39.895Z,101355.13
2024-04-12T01:00:30.028Z,101353.84
2024-04-12T01:02:59.654Z,101355.00
2024-04-12T01:05:26.606Z,101343.38
2024-04-12T01:07:57.894Z,101347.31
2024-04-12T01:10:27.105Z,101340.72
2024-04-12T01:12:57.165Z,101349.69
2024-04-12T01:15:25.994Z,101335.38
2024-04-12T01:17:54.004Z,101341.19
2024-04-12T01:20:26.512Z,101342.25
2024-04-12T01:22:59.645Z,101344.94
2024-04-12T01:25:27.450Z,101348.78
2024-04-12T01:27:56.980Z,101342.16
2024-04-12T01:30:24.082Z,101354.38
2024-04-12T01:32:54.123Z,101344.94
2024-04-12T01:35:25.536Z,101344.22
2024-04-12T01:37:53.454Z,101336.09
2024-04-12T01:40:24.166Z,101334.47
2024-04-12T01:42:51.872Z,101347.72
2024-04-12T01:45:18.698Z,101345.28
2024-04-12T01:47:48.049Z,101337.75
2024-04-12T01:50:23.948Z,101336.47
2024-04-12T01:52:54.037Z,101340.94
2024-04-12T01:55:22.233Z,101344.66
2024-04-12T01:57:54.048Z,101341.53
2024-04-12T02:00:22.309Z,101339.50
2024-04-12T02:02:53.456Z,101334.22
2024-04-12T02:05:34.871Z,101339.09
2024-04-12T02:08:09.777Z,101334.22
2024-04-12T02:10:43.175Z,101344.44
2024-04-12T02:13:19.032Z,101338.72
2024-04-12T02:15:54.293Z,101345.06
2024-04-12T02:18:25.474Z,101355.72
2024-04-12T02:20:54.599Z,101349.06
2024-04-12T02:23:23.076Z,101352.06
2024-04-12T02:25:51.289Z,101346.53
2024-04-12T02:28:19.588Z,101354.88
2024-04-12T02:30:55.916Z,101349.59
2024-04-12T02:33:34.455Z,101344.59
2024-04-12T02:36:13.801Z,101344.50
2024-04-12T02:38:42.830Z,101340.44
2024-04-12T02:41:17.175Z,101339.69
2024-04-12T02:43:56.653Z,101343.75
2024-04-12T02:46:26.493Z,101353.59
2024-04-12T02:48:53.809Z,101350.72
2024-04-12T02:51:24.244Z,101345.25
2024-04-12T02:53:53.008Z,101343.53
2024-04-12T02:56:21.731Z,101343.28
2024-04-12T02:58:53.229Z,101350.19
2024-04-12T03:01:24.930Z,101355.22
2024-04-12T03:03:57.816Z,101353.78
2024-04-12T03:06:27.450Z,101348.34
2024-04-12T03:09:02.187Z,101346.31
2024-04-12T03:11:37.654Z,101353.75
2024-04-12T03:14:19.448Z,101347.53
2024-04-12T03:16:52.840Z,101354.75
2024-04-12T03:19:19.825Z,101348.19
2024-04-12T03:21:52.860Z,101355.38
2024-04-12T03:24:20.276Z,101354.50
2024-04-12T03:26:49.256Z,101347.06
2024-04-12T03:29:18.534Z,101350.09
2024-04-12T03:31:48.714Z,101358.09
2024-04-12T03:34:16.157Z,101357.75
2024-04-12T03:36:55.052Z,101356.00
2024-04-12T03:39:23.785Z,101361.88
2024-04-12T03:42:01.057Z,101363.13
2024-04-12T03:44:33.039Z,101364.94
2024-04-12T03:47:06.098Z,101365.38
2024-04-12T03:49:33.505Z,101360.06
2024-04-12T03:52:00.417Z,101360.72
2024-04-12T03:54:28.342Z,101367.31
2024-04-12T03:56:58.620Z,101370.88
2024-04-12T03:59:39.555Z,101362.97
2024-04-12T04:02:10.350Z,101373.03
2024-04-12T04:04:39.069Z,101377.72
2024-04-12T04:07:07.355Z,101374.47
2024-04-12T04:09:34.203Z,101380.19
2024-04-12T04:12:01.224Z,101379.09
2024-04-12T04:14:29.302Z,101380.47
2024-04-12T04:17:02.712Z,101374.88
2024-04-12T04:19:37.228Z,101381.28
2024-04-12T04:22:23.385Z,101382.44
2024-04-12T04:24:54.178Z,101377.63
2024-04-12T04:27:23.311Z,101374.34
2024-04-12T04:29:53.858Z,101371.84
2024-04-12T04:32:23.590Z,101380.66
2024-04-12T04:35:06.668Z,101379.69
2024-04-12T04:37:41.418Z,101384.53
2024-04-12T04:40:18.855Z,101380.00
2024-04-12T04:42:47.552Z,101378.84
2024-04-12T04:45:23.749Z,101376.56
2024-04-12T04:47:51.143Z,101373.00
2024-04-12T04:50:21.209Z,101374.03
2024-04-12T04:52:48.649Z,101372.91
2024-04-12T04:55:15.895Z,101375.16
2024-04-12T04:57:45.819Z,101378.06
2024-04-12T05:00:20.750Z,101368.38
2024-04-12T05:02:52.229Z,101371.38
2024-04-12T05:05:28.659Z,101368.88
2024-04-12T05:07:57.320Z,101359.69
2024-04-12T05:10:26.157Z,101367.47
2024-04-12T05:12:53.476Z,101366.88
2024-04-12T05:15:50.500Z,101364.72
2024-04-12T05:18:17.991Z,101369.75
2024-04-12T05:20:45.615Z,101373.81
2024-04-12T05:23:14.189Z,101367.19
2024-04-12T05:25:42.020Z,101375.75
2024-04-12T05:28:09.561Z,101376.56
2024-04-12T05:30:38.484Z,101372.84
2024-04-12T05:33:06.133Z,101366.09
2024-04-12T05:35:36.204Z,101371.34
2024-04-12T05:38:08.958Z,101373.38
2024-04-12T05:40:47.557Z,101363.00
2024-04-12T05:43:17.778Z,101362.59
2024-04-12T05:45:49.004Z,101368.66
2024-04-12T05:48:16.424Z,101379.63
2024-04-12T05:50:47.989Z,101382.28
2024-04-12T05:53:15.479Z,101379.34
2024-04-12T05:55:46.424Z,101380.22
2024-04-12T05:58:17.585Z,101382.66
2024-04-12T06:00:48.748Z,101387.19
2024-04-12T06:03:16.742Z,101378.41
2024-04-12T06:05:56.837Z,101390.09
2024-04-12T06:08:24.608Z,101384.00
2024-04-12T06:10:52.174Z,101380.28
2024-04-12T06:13:22.607Z,101388.19
2024-04-12T06:15:49.801Z,101383.97
2024-04-12T06:18:20.437Z,101386.03
2024-04-12T06:20:49.630Z,101380.38
2024-04-12T06:23:20.045Z,101389.63
2024-04-12T06:25:47.384Z,101390.06
2024-04-12T06:28:15.095Z,101380.69
2024-04-12T06:30:48.136Z,101378.84
2024-04-12T06:33:15.795Z,101384.47
2024-04-12T06:35:45.793Z,101384.84
2024-04-12T06:38:23.702Z,101380.66
2024-04-12T06:40:54.800Z,101384.50
2024-04-12T06:43:24.780Z,101390.34
2024-04-12T06:45:59.291Z,101380.19
2024-04-12T06:48:28.023Z,101389.78
2024-04-12T06:50:56.111Z,101380.38
2024-04-12T06:53:26.286Z,101384.28
2024-04-12T06:56:00.715Z,101384.53
2024-04-12T06:58:28.250Z,101376.59
2024-04-12T07:00:59.050Z,101380.19
2024-04-12T07:03:26.309Z,101386.81
2024-04-12T07:05:56.622Z,101375.69
2024-04-12T07:08:27.132Z,101380.59
2024-04-12T07:10:54.767Z,101372.28
2024-04-12T07:13:22.999Z,101370.31
2024-04-12T07:15:50.798Z,101377.13
2024-04-12T07:18:18.871Z,101378.75
2024-04-12T07:20:46.676Z,101378.75
2024-04-12T07:23:17.068Z,101375.50
2024-04-12T07:25:46.878Z,101381.16
2024-04-12T07:28:14.874Z,101383.78
2024-04-12T07:30:45.752Z,101373.75
2024-04-12T07:33:14.158Z,101366.91
2024-04-12T07:35:45.980Z,101369.16
2024-04-12T07:38:13.466Z,101369.50
2024-04-12T07:40:41.759Z,101371.91
2024-04-12T07:43:15.615Z,101368.69
2024-04-12T07:45:45.155Z,101362.25
2024-04-12T07:48:27.661Z,101356.44
2024-04-12T07:51:02.034Z,101356.28
2024-04-12T07:53:32.145Z,101360.19
2024-04-12T07:56:09.458Z,101374.47
2024-04-12T07:58:37.742Z,101356.16
2024-04-12T08:01:17.992Z,101353.00
2024-04-12T08:03:58.598Z,101352.47
2024-04-12T08:06:39.265Z,101351.16
2024-04-12T08:09:07.547Z,101355.63
2024-04-12T08:11:43.254Z,101349.94
2024-04-12T08:14:22.475Z,101358.81
2024-04-12T08:16:54.351Z,101356.34
2024-04-12T08:19:40.122Z,101345.69
2024-04-12T08:22:08.866Z,101351.53
2024-04-12T08:24:36.319Z,101354.63
2024-04-12T08:27:04.167Z,101358.81
2024-04-12T08:29:31.038Z,101348.44
2024-04-12T08:32:05.842Z,101342.16
2024-04-12T08:34:34.642Z,101336.81
2024-04-12T08:37:04.487Z,101338.88
2024-04-12T08:39:31.467Z,101338.03
2024-04-12T08:42:01.440Z,101338.38
2024-04-12T08:44:33.427Z,101330.91
2024-04-12T08:47:31.561Z,101334.06
2024-04-12T08:50:07.747Z,101325.63
2024-04-12T08:52:47.723Z,101328.09
2024-04-12T08:55:18.378Z,101336.47
2024-04-12T08:57:49.123Z,101337.19
2024-04-12T09:00:20.359Z,101337.31
2024-04-12T09:02:50.585Z,101336.03
2024-04-12T09:05:26.080Z,101344.13
2024-04-12T09:07:53.881Z,101343.28
2024-04-12T09:10:20.811Z,101334.63
2024-04-12T09:12:48.530Z,101333.91
2024-04-12T09:15:25.387Z,101335.56
2024-04-12T09:18:03.056Z,101324.06
2024-04-12T09:20:31.813Z,101342.91
2024-04-12T09:23:16.101Z,101348.75
2024-04-12T09:25:46.131Z,101339.59
2024-04-12T09:28:18.180Z,101332.59
2024-04-12T09:31:03.548Z,101332.84
2024-04-12T09:33:33.259Z,101331.94
2024-04-12T09:36:16.447Z,101326.63
2024-04-12T09:38:43.422Z,101329.91
2024-04-12T09:41:33.433Z,101332.81
2024-04-12T09:44:01.391Z,101333.13
2024-04-12T09:46:48.074Z,101330.25
2024-04-12T09:49:39.368Z,101331.84
2024-04-12T09:52:25.020Z,101324.19
2024-04-12T09:55:10.754Z,101329.88
2024-04-12T09:58:04.404Z,101323.31
2024-04-12T10:00:50.462Z,101328.94
2024-04-12T10:03:36.682Z,101327.72
2024-04-12T10:06:22.179Z,101325.13
2024-04-12T10:09:09.093Z,101320.22
2024-04-12T10:11:56.161Z,101313.97
2024-04-12T10:14:41.830Z,101308.03
2024-04-12T10:17:32.039Z,101308.72
2024-04-12T10:20:18.634Z,101302.41
2024-04-12T10:23:04.702Z,101303.94
2024-04-12T10:25:56.128Z,101298.38
2024-04-12T10:28:41.683Z,101300.75
2024-04-12T10:31:31.162Z,101296.94
2024-04-12T10:34:26.580Z,101297.66
2024-04-12T10:37:13.907Z,101300.03
2024-04-12T10:39:47.280Z,101287.53
2024-04-12T10:42:14.839Z,101283.78
2024-04-12T10:44:47.999Z,101281.88
2024-04-12T10:47:17.478Z,101274.78
2024-04-12T10:49:44.603Z,101277.88
2024-04-12T10:52:15.368Z,101269.06
2024-04-12T10:54:44.919Z,101282.53
2024-04-12T10:57:15.309Z,101267.53
2024-04-12T10:59:43.823Z,101274.72
2024-04-12T11:02:13.642Z,101262.78
2024-04-12T11:05:00.823Z,101266.41
2024-04-12T11:07:28.980Z,101260.91
2024-04-12T11:10:04.980Z,101258.44
2024-04-12T11:12:46.939Z,101272.78
2024-04-12T11:15:23.402Z,101252.16
2024-04-12T11:18:13.436Z,101260.56
2024-04-12T11:21:14.640Z,101265.97
2024-04-12T11:24:01.017Z,101253.22
2024-04-12T11:26:47.177Z,101255.41
2024-04-12T11:29:37.664Z,101244.75
2024-04-12T11:32:07.520Z,101237.47
2024-04-12T11:34:41.391Z,101230.91
2024-04-12T11:37:11.100Z,101229.28
2024-04-12T11:39:39.649Z,101219.00
2024-04-12T11:42:08.115Z,101232.56
2024-04-12T11:44:35.978Z,101214.97
2024-04-12T11:47:04.822Z,101217.88
2024-04-12T11:49:46.954Z,101203.97
2024-04-12T11:52:18.097Z,101200.78
2024-04-12T11:55:00.799Z,101206.56
2024-04-12T11:57:31.512Z,101201.25
2024-04-12T12:00:02.214Z,101207.94
2024-04-12T12:02:30.246Z,101201.09
2024-04-12T12:04:58.054Z,101195.13
2024-04-12T12:07:25.268Z,101189.34
2024-04-12T12:09:52.106Z,101182.63
2024-04-12T12:12:23.596Z,101186.56
2024-04-12T12:14:54.033Z,101183.06
2024-04-12T12:17:21.530Z,101185.16
2024-04-12T12:19:53.070Z,101189.03
2024-04-12T12:22:21.511Z,101184.63
2024-04-12T12:24:49.317Z,101184.47
2024-04-12T12:27:17.568Z,101174.13
2024-04-12T12:29:50.084Z,101176.78
2024-04-12T12:32:17.049Z,101162.44
2024-04-12T12:34:45.273Z,101158.81
2024-04-12T12:37:13.319Z,101157.16
2024-04-12T12:39:40.718Z,101160.22
2024-04-12T12:42:11.158Z,101156.25
2024-04-12T12:44:38.411Z,101158.19
2024-04-12T12:47:07.286Z,101168.19
2024-04-12T12:49:48.765Z,101148.97
2024-04-12T12:52:16.195Z,101143.97
2024-04-12T12:54:44.691Z,101141.28
2024-04-12T12:57:13.571Z,101143.28
2024-04-12T12:59:44.818Z,101139.28
2024-04-12T13:02:17.004Z,101147.09
2024-04-12T13:04:48.500Z,101147.13
2024-04-12T13:07:18.696Z,101132.44
2024-04-12T13:09:55.762Z,101128.44
2024-04-12T13:12:31.197Z,101133.38
2024-04-12T13:15:01.943Z,101137.66
2024-04-12T13:17:29.153Z,101119.69
2024-04-12T13:19:58.759Z,101114.63
2024-04-12T13:22:25.755Z,101113.81
2024-04-12T13:24:53.076Z,101108.06
2024-04-12T13:27:25.485Z,101114.00
2024-04-12T13:29:52.549Z,101115.44
2024-04-12T13:32:20.769Z,101118.59
2024-04-12T13:34:47.857Z,101107.91
2024-04-12T13:37:22.112Z,101105.88
2024-04-12T13:39:50.022Z,101109.53
2024-04-12T13:42:22.116Z,101124.97
2024-04-12T13:45:08.101Z,101113.44
2024-04-12T13:47:54.305Z,101105.50
2024-04-12T13:50:57.053Z,101089.47
2024-04-12T13:53:33.919Z,101083.97
2024-04-12T13:56:20.136Z,101093.53
2024-04-12T13:58:54.997Z,101086.25
2024-04-12T14:01:24.233Z,101091.84
2024-04-12T14:04:00.016Z,101093.56
2024-04-12T14:06:28.975Z,101085.25
2024-04-12T14:08:57.085Z,101080.91
2024-04-12T14:11:24.086Z,101081.63
2024-04-12T14:13:51.775Z,101076.28
2024-04-12T14:16:18.889Z,101073.84
2024-04-12T14:18:49.583Z,101062.50
2024-04-12T14:21:21.972Z,101086.38
2024-04-12T14:23:50.893Z,101078.31
2024-04-12T14:26:17.740Z,101081.34
2024-04-12T14:28:44.806Z,101062.72
2024-04-12T14:31:12.142Z,101065.66
2024-04-12T14:33:40.448Z,101060.44
2024-04-12T14:36:08.261Z,101080.50
2024-04-12T14:38:41.599Z,101061.19
2024-04-12T14:41:09.183Z,101061.72
2024-04-12T14:43:36.400Z,101065.28
2024-04-12T14:46:07.849Z,101060.63
2024-04-12T14:48:37.571Z,101064.97
2024-04-12T14:51:05.570Z,101062.88
2024-04-12T14:53:32.758Z,101058.59
2024-04-12T14:55:59.817Z,101060.06
2024-04-12T14:58:29.323Z,101045.09
2024-04-12T15:00:56.837Z,101056.31
2024-04-12T15:03:42.961Z,101037.59
2024-04-12T15:06:28.311Z,101029.81
2024-04-12T15:09:19.261Z,101049.72
2024-04-12T15:12:04.692Z,101034.31
2024-04-12T15:14:50.556Z,101032.34
2024-04-12T15:17:36.663Z,101036.88
2024-04-12T15:20:22.186Z,101043.84
2024-04-12T15:23:07.573Z,101044.00
2024-04-12T15:25:53.092Z,101033.63
2024-04-12T15:28:38.662Z,101028.09
2024-04-12T15:31:24.785Z,101035.91
2024-04-12T15:34:10.541Z,101028.72
2024-04-12T15:36:56.498Z,101040.00
2024-04-12T15:39:42.269Z,101043.84
2024-04-12T15:42:27.614Z,101030.41
2024-04-12T15:45:13.435Z,101031.44
2024-04-12T15:47:40.804Z,101039.53
2024-04-12T15:50:23.072Z,101034.91
2024-04-12T15:53:08.215Z,101033.75
2024-04-12T15:55:55.769Z,101036.91
2024-04-12T15:58:42.701Z,101034.81
2024-04-12T16:01:28.463Z,101032.53
2024-04-12T16:04:20.896Z,101022.81
2024-04-12T16:07:07.094Z,101015.03
2024-04-12T16:09:54.840Z,101014.66
2024-04-12T16:12:22.228Z,101024.44
2024-04-12T16:14:49.206Z,101024.66
2024-04-12T16:17:16.575Z,101022.09
2024-04-12T16:19:43.540Z,101031.78
2024-04-12T16:22:11.460Z,101032.72
2024-04-12T16:24:39.095Z,101035.56
2024-04-12T16:27:06.999Z,101036.78
2024-04-12T16:29:34.236Z,101040.34
2024-04-12T16:32:01.174Z,101038.22
2024-04-12T16:34:28.070Z,101033.91
2024-04-12T16:36:54.941Z,101035.84
2024-04-12T16:39:22.105Z,101033.91
2024-04-12T16:41:52.237Z,101038.75
2024-04-12T16:44:19.104Z,101036.13
2024-04-12T16:46:46.082Z,101034.72
2024-04-12T16:49:12.967Z,101037.50
2024-04-12T16:51:41.119Z,101046.38
2024-04-12T16:54:08.741Z,101052.50
2024-04-12T16:56:35.772Z,101042.44
2024-04-12T16:59:06.125Z,101049.34
2024-04-12T17:01:33.545Z,101053.69
2024-04-12T17:04:02.028Z,101042.53
2024-04-12T17:06:30.269Z,101048.97
2024-04-12T17:08:57.172Z,101054.59
2024-04-12T17:11:27.484Z,101045.47
2024-04-12T17:13:54.365Z,101046.91
2024-04-12T17:16:21.947Z,101046.81
2024-04-12T17:18:49.439Z,101051.13
2024-04-12T17:21:16.800Z,101051.56
2024-04-12T17:23:43.989Z,101047.88
2024-04-12T17:26:11.847Z,101054.22
2024-04-12T17:28:39.745Z,101056.91
2024-04-12T17:31:10.100Z,101056.78
2024-04-12T17:33:37.111Z,101059.75
2024-04-12T17:36:08.067Z,101052.09
2024-04-12T17:38:37.476Z,101055.88
2024-04-12T17:41:04.591Z,101058.38
2024-04-12T17:43:31.443Z,101058.66
2024-04-12T17:45:58.645Z,101062.09
2024-04-12T17:48:25.780Z,101062.75
2024-04-12T17:50:54.646Z,101059.06
2024-04-12T17:53:23.428Z,101062.34
2024-04-12T17:55:51.015Z,101055.84
2024-04-12T17:58:18.136Z,101050.34
2024-04-12T18:00:48.066Z,101059.91
2024-04-12T18:03:15.367Z,101047.47
2024-04-12T18:05:42.537Z,101052.66
2024-04-12T18:08:09.504Z,101049.75
2024-04-12T18:10:36.334Z,101057.47
2024-04-12T18:13:03.189Z,101060.44
2024-04-12T18:15:30.039Z,101056.34
2024-04-12T18:17:57.132Z,101054.91
2024-04-12T18:20:26.191Z,101063.38
2024-04-12T18:22:53.995Z,101054.59
2024-04-12T18:25:21.248Z,101051.72
2024-04-12T18:27:48.078Z,101053.56
2024-04-12T18:30:15.412Z,101053.31
2024-04-12T18:32:43.941Z,101056.03
2024-04-12T18:35:14.089Z,101065.47
2024-04-12T18:38:04.454Z,101057.09
2024-04-12T18:40:51.763Z,101056.44
2024-04-12T18:43:37.452Z,101067.03
2024-04-12T18:46:04.564Z,101056.19
2024-04-12T18:48:31.549Z,101063.16
2024-04-12T18:50:58.434Z,101059.31
2024-04-12T18:53:25.851Z,101053.75
2024-04-12T18:55:55.367Z,101066.59
2024-04-12T18:58:22.290Z,101066.34
2024-04-12T19:00:50.641Z,101056.38
2024-04-12T19:03:17.696Z,101061.25
2024-04-12T19:05:46.555Z,101067.56
2024-04-12T19:08:13.900Z,101071.38
2024-04-12T19:10:42.914Z,101066.59
2024-04-12T19:13:11.407Z,101071.00
2024-04-12T19:15:40.174Z,101074.66
2024-04-12T19:18:11.041Z,101063.13
2024-04-12T19:20:44.790Z,101059.91
2024-04-12T19:23:12.671Z,101061.16
2024-04-12T19:25:39.593Z,101067.16
2024-04-12T19:28:06.721Z,101061.75
2024-04-12T19:30:38.001Z,101052.28
2024-04-12T19:33:05.358Z,101060.72
2024-04-12T19:35:32.409Z,101054.69
2024-04-12T19:37:59.310Z,101058.28
2024-04-12T19:40:26.212Z,101054.13
2024-04-12T19:42:53.495Z,101057.72
2024-04-12T19:45:20.513Z,101056.09
2024-04-12T19:47:48.126Z,101052.88
2024-04-12T19:50:15.233Z,101057.81
2024-04-12T19:52:51.011Z,101055.41
2024-04-12T19:55:23.303Z,101046.06
2024-04-12T19:57:50.090Z,101051.25
2024-04-12T20:00:17.231Z,101049.19
2024-04-12T20:02:46.103Z,101049.38
2024-04-12T20:05:16.244Z,101054.34
2024-04-12T20:07:43.091Z,101052.06
2024-04-12T20:10:10.189Z,101050.91
2024-04-12T20:12:37.606Z,101042.38
2024-04-12T20:15:05.557Z,101054.59
2024-04-12T20:17:32.653Z,101045.91
2024-04-12T20:20:04.227Z,101051.50
2024-04-12T20:22:31.018Z,101045.28
2024-04-12T20:24:59.718Z,101051.69
2024-04-12T20:27:27.461Z,101054.72
2024-04-12T20:30:08.069Z,101054.13
2024-04-12T20:32:38.497Z,101054.50
2024-04-12T20:35:14.629Z,101054.00
2024-04-12T20:37:41.549Z,101050.47
2024-04-12T20:40:09.468Z,101048.84
2024-04-12T20:42:36.802Z,101053.91
2024-04-12T20:45:04.587Z,101054.38
2024-04-12T20:47:31.946Z,101056.13
2024-04-12T20:50:02.751Z,101051.03
2024-04-12T20:52:29.684Z,101053.69
2024-04-12T20:54:56.938Z,101055.31
2024-04-12T20:57:23.898Z,101059.59
2024-04-12T20:59:53.036Z,101055.63
2024-04-12T21:02:20.097Z,101047.56
2024-04-12T21:04:52.546Z,101054.78
2024-04-12T21:07:20.037Z,101051.06
2024-04-12T21:09:47.102Z,101054.16
2024-04-12T21:12:14.066Z,101050.91
2024-04-12T21:14:41.754Z,101051.66
2024-04-12T21:17:09.861Z,101054.44
2024-04-12T21:19:36.708Z,101052.78
2024-04-12T21:22:04.190Z,101049.97
2024-04-12T21:24:32.656Z,101045.69
2024-04-12T21:26:59.558Z,101044.59
2024-04-12T21:29:27.429Z,101046.91
2024-04-12T21:31:54.306Z,101042.78
2024-04-12T21:34:21.254Z,101053.97
2024-04-12T21:36:48.296Z,101052.25
2024-04-12T21:39:15.155Z,101053.56
2024-04-12T21:41:42.372Z,101058.44
2024-04-12T21:44:10.030Z,101056.44
2024-04-12T21:46:39.244Z,101060.31
2024-04-12T21:49:06.155Z,101055.44
2024-04-12T21:51:34.842Z,101052.28
2024-04-12T21:54:02.080Z,101061.19
2024-04-12T21:56:29.054Z,101050.97
2024-04-12T21:58:56.329Z,101055.31
2024-04-12T22:01:23.265Z,101052.19
2024-04-12T22:03:50.661Z,101055.41
2024-04-12T22:06:17.712Z,101054.53
2024-04-12T22:08:44.745Z,101056.19
2024-04-12T22:11:12.300Z,101054.59
2024-04-12T22:13:39.574Z,101051.84
2024-04-12T22:16:13.689Z,101049.59
2024-04-12T22:18:42.359Z,101054.59
2024-04-12T22:21:18.060Z,101052.78
2024-04-12T22:23:46.762Z,101050.16
2024-04-12T22:26:19.102Z,101046.38
2024-04-12T22:28:46.921Z,101053.13
2024-04-12T22:31:18.504Z,101047.56
2024-04-12T22:33:47.163Z,101046.19
2024-04-12T22:36:15.154Z,101045.94
2024-04-12T22:38:42.227Z,101044.28
2024-04-12T22:41:09.402Z,101047.63
2024-04-12T22:43:36.542Z,101041.41
2024-04-12T22:46:04.149Z,101042.13
2024-04-12T22:48:31.662Z,101040.31
2024-04-12T22:50:58.773Z,101036.91
2024-04-12T22:53:26.493Z,101035.16
2024-04-12T22:55:53.378Z,101041.91
2024-04-12T22:58:20.354Z,101033.44
2024-04-12T23:00:47.497Z,101035.81
2024-04-12T23:03:18.260Z,101041.69
2024-04-12T23:05:45.520Z,101048.31
2024-04-12T23:08:12.304Z,101039.50
2024-04-12T23:10:39.123Z,101039.09
2024-04-12T23:13:05.881Z,101039.78
2024-04-12T23:15:32.765Z,101028.25
2024-04-12T23:17:59.706Z,101030.50
2024-04-12T23:20:29.521Z,101036.50
2024-04-12T23:22:57.366Z,101038.03
2024-04-12T23:25:24.228Z,101037.00
2024-04-12T23:27:53.425Z,101046.56
2024-04-12T23:30:20.257Z,101040.31
2024-04-12T23:32:47.210Z,101052.69
2024-04-12T23:35:14.251Z,101047.97
2024-04-12T23:37:41.487Z,101049.03
2024-04-12T23:40:09.335Z,101051.34
2024-04-12T23:42:36.490Z,101050.75
2024-04-12T23:45:03.835Z,101052.31
2024-04-12T23:47:31.500Z,101058.91
2024-04-12T23:49:58.528Z,101073.69
2024-04-12T23:52:27.539Z,101065.34
2024-04-12T23:54:54.935Z,101059.66
2024-04-12T23:57:21.740Z,101064.69
2024-04-12T23:59:48.721Z,101055.94
